createdAt,value
2023-05-16T00:03:53.778Z,4.08
2023-05-16T00:09:58.361Z,4.08
2023-05-16T00:14:01.881Z,4.08
2023-05-16T00:20:05.864Z,4.08
2023-05-16T00:26:09.729Z,4.07
2023-05-16T00:30:12.473Z,4.07
2023-05-16T00:34:15.516Z,4.07
2023-05-16T00:36:17.225Z,4.07
2023-05-16T00:40:20.353Z,4.07
2023-05-16T00:46:24.706Z,4.07
2023-05-16T00:52:29.603Z,4.07
2023-05-16T00:56:33.113Z,4.07
2023-05-16T01:03:21.220Z,4.06
2023-05-16T01:07:24.511Z,4.07
2023-05-16T01:13:29.859Z,4.07
2023-05-16T01:17:32.913Z,4.07
2023-05-16T01:19:42.045Z,4.06
2023-05-16T01:23:37.716Z,4.06
2023-05-16T01:29:41.123Z,4.06
2023-05-16T01:35:44.861Z,4.06
2023-05-16T01:39:48.020Z,4.06
2023-05-16T01:45:51.592Z,4.06
2023-05-16T01:49:54.611Z,4.06
2023-05-16T01:53:57.822Z,4.06
2023-05-16T01:55:59.140Z,4.06
2023-05-16T02:00:01.648Z,4.06
2023-05-16T02:02:02.723Z,4.06
2023-05-16T02:06:06.131Z,4.06
2023-05-16T02:12:10.985Z,4.06
2023-05-16T02:14:12.567Z,4.06
2023-05-16T02:18:15.489Z,4.06
2023-05-16T02:22:18.256Z,4.05
2023-05-16T02:28:22.207Z,4.06
2023-05-16T02:32:25.391Z,4.05
2023-05-16T02:34:27.090Z,4.06
2023-05-16T02:38:30.248Z,4.05
2023-05-16T02:42:33.053Z,4.05
2023-05-16T02:44:34.954Z,4.05
2023-05-16T02:48:38.266Z,4.05
2023-05-16T02:54:43.522Z,4.05
2023-05-16T03:00:47.665Z,4.05
2023-05-16T03:04:49.897Z,4.05
2023-05-16T03:10:53.281Z,4.05
2023-05-16T03:12:54.882Z,4.05
2023-05-16T03:16:56.975Z,4.04
2023-05-16T03:20:59.849Z,4.04
2023-05-16T03:27:03.313Z,4.04
2023-05-16T03:31:06.181Z,4.04
2023-05-16T03:33:07.363Z,4.05
2023-05-16T03:37:10.316Z,4.04
2023-05-16T03:43:14.388Z,4.04
2023-05-16T03:47:17.056Z,4.04
2023-05-16T03:53:22.609Z,4.04
2023-05-16T03:57:26.106Z,4.04
2023-05-16T03:59:27.685Z,4.04
2023-05-16T04:03:30.353Z,4.04
2023-05-16T04:07:33.007Z,4.04
2023-05-16T04:09:34.136Z,4.04
2023-05-16T04:13:37.288Z,4.04
2023-05-16T04:17:39.831Z,4.04
2023-05-16T04:19:41.136Z,4.04
2023-05-16T04:23:44.088Z,4.04
2023-05-16T04:25:45.773Z,4.04
2023-05-16T04:27:47.545Z,4.04
2023-05-16T04:29:48.508Z,4.04
2023-05-16T04:35:53.397Z,4.04
2023-05-16T04:37:54.980Z,4.04
2023-05-16T04:41:58.234Z,4.04
2023-05-16T04:46:00.860Z,4.04
2023-05-16T04:52:05.185Z,4.04
2023-05-16T04:58:09.835Z,4.04
2023-05-16T05:02:12.111Z,4.03
2023-05-16T05:06:14.628Z,4.03
2023-05-16T05:08:16.205Z,4.03
2023-05-16T05:12:18.827Z,4.03
2023-05-16T05:18:23.264Z,4.03
2023-05-16T05:24:26.417Z,4.03
2023-05-16T05:28:29.150Z,4.03
2023-05-16T05:34:32.836Z,4.03
2023-05-16T05:38:35.905Z,4.03
2023-05-16T05:40:36.992Z,4.03
2023-05-16T05:44:40.180Z,4.03
2023-05-16T05:48:43.432Z,4.02
2023-05-16T05:50:45.086Z,4.02
2023-05-16T05:54:48.152Z,4.03
2023-05-16T06:00:52.524Z,4.02
2023-05-16T06:06:56.470Z,4.03
2023-05-16T06:10:59.990Z,4.02
2023-05-16T06:17:11.763Z,4.02
2023-05-16T06:23:07.409Z,4.02
2023-05-16T06:27:10.252Z,4.02
2023-05-16T06:33:14.059Z,4.02
2023-05-16T06:37:17.517Z,4.02
2023-05-16T06:41:20.779Z,4.02
2023-05-16T06:43:22.134Z,4.02
2023-05-16T06:47:24.968Z,4.02
2023-05-16T06:49:26.174Z,4.02
2023-05-16T06:53:28.019Z,4.02
2023-05-16T06:59:32.495Z,4.02
2023-05-16T07:05:36.538Z,4.02
2023-05-16T07:09:39.124Z,4.02
2023-05-16T07:15:43.898Z,4.02
2023-05-16T07:19:45.940Z,4.02
2023-05-16T07:21:47.624Z,4.02
2023-05-16T07:25:50.893Z,4.02
2023-05-16T07:29:54.377Z,4.02
2023-05-16T07:31:55.407Z,4.02
2023-05-16T07:36:08.368Z,4.02
2023-05-16T07:42:02.332Z,4.02
2023-05-16T07:46:49.499Z,4.02
2023-05-16T07:52:53.891Z,4.02
2023-05-16T07:56:56.926Z,4.02
2023-05-16T07:58:57.965Z,4.02
2023-05-16T08:03:01.198Z,4.02
2023-05-16T08:07:03.854Z,4.03
2023-05-16T08:09:05.034Z,4.03
2023-05-16T08:13:07.429Z,4.02
2023-05-16T08:17:09.560Z,4.02
2023-05-16T08:19:11.369Z,4.02
2023-05-16T08:23:13.691Z,4.02
2023-05-16T08:25:15.235Z,4.02
2023-05-16T08:27:16.955Z,4.02
2023-05-16T08:29:18.710Z,4.02
2023-05-16T08:35:22.437Z,4.03
2023-05-16T08:37:24.297Z,4.03
2023-05-16T08:41:27.779Z,4.03
2023-05-16T08:45:30.183Z,4.03
2023-05-16T08:51:33.716Z,4.04
2023-05-16T08:55:36.731Z,4.04
2023-05-16T08:57:38.299Z,4.04
2023-05-16T09:01:41.188Z,4.04
2023-05-16T09:05:43.720Z,4.04
2023-05-16T09:07:45.101Z,4.04
2023-05-16T09:11:47.846Z,4.04
2023-05-16T09:17:53.107Z,4.04
2023-05-16T09:23:56.064Z,4.05
2023-05-16T09:27:59.515Z,4.05
2023-05-16T09:34:04.280Z,4.04
2023-05-16T09:38:06.662Z,4.04
2023-05-16T09:40:07.957Z,4.04
2023-05-16T09:44:10.217Z,4.04
2023-05-16T09:48:13.186Z,4.04
2023-05-16T09:50:15.327Z,4.04
2023-05-16T09:54:16.582Z,4.05
2023-05-16T10:00:19.383Z,4.04
2023-05-16T10:06:23.325Z,4.04
2023-05-16T10:10:26.198Z,4.04
2023-05-16T10:16:29.926Z,4.04
2023-05-16T10:22:33.929Z,4.04
2023-05-16T10:26:36.641Z,4.05
2023-05-16T10:32:42.001Z,4.07
2023-05-16T10:36:43.117Z,4.07
2023-05-16T10:40:46.048Z,4.07
2023-05-16T10:42:47.770Z,4.07
2023-05-16T10:46:50.843Z,4.08
2023-05-16T10:48:54.383Z,4.09
2023-05-16T10:50:54.049Z,4.09
2023-05-16T10:52:55.335Z,4.1
2023-05-16T10:59:00.424Z,4.11
2023-05-16T11:01:01.548Z,4.12
2023-05-16T11:05:04.622Z,4.09
2023-05-16T11:09:07.101Z,4.09
2023-05-16T11:15:11.169Z,4.08
2023-05-16T11:19:13.263Z,4.08
2023-05-16T11:21:14.944Z,4.09
2023-05-16T11:25:17.737Z,4.09
2023-05-16T11:29:20.142Z,4.09
2023-05-16T11:31:21.822Z,4.09
2023-05-16T11:35:24.956Z,4.09
2023-05-16T11:41:29.670Z,4.1
2023-05-16T11:47:33.642Z,4.09
2023-05-16T11:51:37.014Z,4.08
2023-05-16T11:57:41.399Z,4.08
2023-05-16T12:01:44.235Z,4.08
2023-05-16T12:03:45.994Z,4.08
2023-05-16T12:07:49.110Z,4.08
2023-05-16T12:11:51.338Z,4.08
2023-05-16T12:13:52.898Z,4.08
2023-05-16T12:17:56.168Z,4.08
2023-05-16T12:23:59.700Z,4.09
2023-05-16T12:30:04.841Z,4.1
2023-05-16T12:34:07.630Z,4.11
2023-05-16T12:40:12.175Z,4.12
2023-05-16T12:44:15.197Z,4.12
2023-05-16T12:46:16.788Z,4.12
2023-05-16T12:50:19.869Z,4.12
2023-05-16T12:54:22.302Z,4.11
2023-05-16T12:56:24.137Z,4.12
2023-05-16T13:00:27.458Z,4.13
2023-05-16T13:04:29.721Z,4.15
2023-05-16T13:06:36.953Z,4.15
2023-05-16T13:10:33.483Z,4.16
2023-05-16T13:12:34.688Z,4.16
2023-05-16T13:14:36.275Z,4.16
2023-05-16T13:16:38.480Z,4.16
2023-05-16T13:22:41.878Z,4.17
2023-05-16T13:24:43.486Z,4.17
2023-05-16T13:28:46.153Z,4.17
2023-05-16T13:32:48.767Z,4.18
2023-05-16T13:38:53.910Z,4.18
2023-05-16T13:42:56.618Z,4.19
2023-05-16T13:44:58.108Z,4.19
2023-05-16T13:49:01.805Z,4.19
2023-05-16T13:53:02.362Z,4.19
2023-05-16T13:55:03.523Z,4.19
2023-05-16T13:59:07.084Z,4.19
2023-05-16T14:05:09.802Z,4.19
2023-05-16T14:11:14.406Z,4.19
2023-05-16T14:15:17.102Z,4.2
2023-05-16T14:21:20.437Z,4.2
2023-05-16T14:25:23.615Z,4.2
2023-05-16T14:27:25.428Z,4.2
2023-05-16T14:31:28.391Z,4.2
2023-05-16T14:32:12.176Z,4.2
2023-05-16T14:36:14.933Z,4.2
2023-05-16T14:42:19.409Z,4.2
2023-05-16T14:46:22.597Z,4.2
2023-05-16T14:48:24.197Z,4.2
2023-05-16T14:52:26.969Z,4.19
2023-05-16T14:58:30.977Z,4.18
2023-05-16T15:02:33.712Z,4.18
2023-05-16T15:04:34.620Z,4.19
2023-05-16T15:08:38.103Z,4.18
2023-05-16T15:12:41.432Z,4.18
2023-05-16T15:14:43.066Z,4.18
2023-05-16T15:18:46.122Z,4.18
2023-05-16T15:22:48.530Z,4.18
2023-05-16T15:24:50.129Z,4.18
2023-05-16T15:28:52.867Z,4.18
2023-05-16T15:30:54.591Z,4.18
2023-05-16T15:32:55.743Z,4.18
2023-05-16T15:34:57.584Z,4.17
2023-05-16T15:41:15.659Z,4.18
2023-05-16T15:47:05.663Z,4.17
2023-05-16T15:51:09.047Z,4.17
2023-05-16T15:57:13.332Z,4.18
2023-05-16T16:01:15.823Z,4.17
2023-05-16T16:05:18.964Z,4.17
2023-05-16T16:07:19.964Z,4.17
2023-05-16T16:11:22.548Z,4.17
2023-05-16T16:13:23.821Z,4.17
2023-05-16T16:17:26.745Z,4.17
2023-05-16T16:23:30.106Z,4.17
2023-05-16T16:29:34.152Z,4.17
2023-05-16T16:33:37.440Z,4.17
2023-05-16T16:39:43.001Z,4.16
2023-05-16T16:43:45.610Z,4.17
2023-05-16T16:45:47.601Z,4.16
2023-05-16T16:49:50.149Z,4.17
2023-05-16T16:53:52.943Z,4.16
2023-05-16T16:55:54.359Z,4.16
2023-05-16T16:59:56.908Z,4.16
2023-05-16T17:06:00.561Z,4.16
2023-05-16T17:12:03.970Z,4.16
2023-05-16T17:16:06.405Z,4.16
2023-05-16T17:22:10.481Z,4.16
2023-05-16T17:26:12.995Z,4.16
2023-05-16T17:28:13.957Z,4.16
2023-05-16T17:32:16.818Z,4.16
2023-05-16T17:36:20.090Z,4.16
2023-05-16T17:38:20.999Z,4.16
2023-05-16T17:42:23.596Z,4.16
2023-05-16T17:46:26.269Z,4.16
2023-05-16T17:48:27.437Z,4.16
2023-05-16T17:52:30.826Z,4.16
2023-05-16T17:54:31.947Z,4.16
2023-05-16T17:56:32.904Z,4.16
2023-05-16T17:58:34.103Z,4.15
2023-05-16T18:04:38.149Z,4.16
2023-05-16T18:06:39.852Z,4.15
2023-05-16T18:10:51.475Z,4.16
2023-05-16T18:14:46.176Z,4.15
2023-05-16T18:20:51.003Z,4.15
2023-05-16T18:24:53.349Z,4.15
2023-05-16T18:26:54.833Z,4.14
2023-05-16T18:30:57.012Z,4.15
2023-05-16T18:35:00.102Z,4.14
2023-05-16T18:37:01.501Z,4.15
2023-05-16T18:41:04.327Z,4.15
2023-05-16T18:47:09.366Z,4.14
2023-05-16T18:51:12.535Z,4.14
2023-05-16T18:53:14.013Z,4.14
2023-05-16T18:57:16.623Z,4.14
2023-05-16T19:01:19.628Z,4.14
2023-05-16T19:03:21.461Z,4.14
2023-05-16T19:07:23.980Z,4.14
2023-05-16T19:09:24.990Z,4.14
2023-05-16T19:13:27.736Z,4.14
2023-05-16T19:19:31.339Z,4.14
2023-05-16T19:25:36.012Z,4.14
2023-05-16T19:29:39.018Z,4.14
2023-05-16T19:35:43.515Z,4.14
2023-05-16T19:39:46.101Z,4.14
2023-05-16T19:41:51.602Z,4.14
2023-05-16T19:45:50.754Z,4.14
2023-05-16T19:49:53.134Z,4.14
2023-05-16T19:51:54.393Z,4.13
2023-05-16T19:55:57.152Z,4.13
2023-05-16T20:02:01.347Z,4.14
2023-05-16T20:08:05.836Z,4.13
2023-05-16T20:12:08.891Z,4.13
2023-05-16T20:18:13.073Z,4.13
2023-05-16T20:22:16.106Z,4.13
2023-05-16T20:24:17.489Z,4.13
2023-05-16T20:28:20.361Z,4.13
2023-05-16T20:32:23.026Z,4.13
2023-05-16T20:34:33.375Z,4.13
2023-05-16T20:38:27.380Z,4.13
2023-05-16T20:44:31.446Z,4.13
2023-05-16T20:50:35.854Z,4.12
2023-05-16T20:54:38.860Z,4.12
2023-05-16T21:00:43.041Z,4.12
2023-05-16T21:04:45.534Z,4.12
2023-05-16T21:06:47.040Z,4.12
2023-05-16T21:10:50.424Z,4.12
2023-05-16T21:14:53.453Z,4.12
2023-05-16T21:16:55.002Z,4.12
2023-05-16T21:17:38.833Z,4.12
2023-05-16T21:19:39.860Z,4.12
2023-05-16T21:21:41.207Z,4.12
2023-05-16T21:25:44.558Z,4.12
2023-05-16T21:27:45.794Z,4.12
2023-05-16T21:29:47.675Z,4.12
2023-05-16T21:31:49.372Z,4.12
2023-05-16T21:37:53.377Z,4.12
2023-05-16T21:39:54.691Z,4.12
2023-05-16T21:43:58.250Z,4.12
2023-05-16T21:48:01.137Z,4.12
2023-05-16T21:54:06.110Z,4.12
2023-05-16T21:58:09.326Z,4.12
2023-05-16T22:00:10.766Z,4.11
2023-05-16T22:04:13.626Z,4.12
2023-05-16T22:08:16.742Z,4.11
2023-05-16T22:10:18.052Z,4.11
2023-05-16T22:14:21.264Z,4.11
2023-05-16T22:20:26.070Z,4.11
2023-05-16T22:26:30.924Z,4.11
2023-05-16T22:30:34.324Z,4.11
2023-05-16T22:36:38.277Z,4.11
2023-05-16T22:40:41.207Z,4.11
2023-05-16T22:42:42.929Z,4.11
2023-05-16T22:46:46.126Z,4.1
2023-05-16T22:50:48.505Z,4.1
2023-05-16T22:52:50.083Z,4.1
2023-05-16T22:56:52.602Z,4.11
2023-05-16T23:02:57.083Z,4.1
2023-05-16T23:09:01.031Z,4.1
2023-05-16T23:13:03.574Z,4.1
2023-05-16T23:19:09.410Z,4.1
2023-05-16T23:23:10.654Z,4.1
2023-05-16T23:25:11.939Z,4.1
2023-05-16T23:29:14.435Z,4.1
2023-05-16T23:33:17.586Z,4.1
2023-05-16T23:35:19.385Z,4.1
2023-05-16T23:39:22.684Z,4.1
2023-05-16T23:45:26.568Z,4.1
2023-05-16T23:49:29.704Z,4.1
2023-05-16T23:51:38.536Z,4.1
2023-05-16T23:55:43.387Z,4.09
